createdAt,value
2023-01-06T00:02:10.583Z,99326.00
2023-01-06T00:04:50.037Z,99323.00
2023-01-06T00:07:20.980Z,99324.00
2023-01-06T00:09:52.042Z,99321.00
2023-01-06T00:12:23.059Z,99318.00
2023-01-06T00:14:54.117Z,99310.00
2023-01-06T00:17:25.220Z,99309.00
2023-01-06T00:19:56.671Z,99311.00
2023-01-06T00:22:27.569Z,99310.00
2023-01-06T00:24:58.526Z,99316.00
2023-01-06T00:27:32.103Z,99305.00
2023-01-06T00:30:11.441Z,99305.00
2023-01-06T00:32:42.436Z,99304.00
2023-01-06T00:35:13.461Z,99297.00
2023-01-06T00:37:47.541Z,99297.00
2023-01-06T00:40:18.433Z,99292.00
2023-01-06T00:42:49.300Z,99288.00
2023-01-06T00:45:20.346Z,99289.00
2023-01-06T00:47:51.224Z,99288.00
2023-01-06T00:50:22.269Z,99279.00
2023-01-06T00:52:54.018Z,99274.00
2023-01-06T00:55:24.884Z,99281.00
2023-01-06T00:57:56.125Z,99285.00
2023-01-06T01:00:27.031Z,99279.00
2023-01-06T01:02:57.997Z,99279.00
2023-01-06T01:05:28.825Z,99286.00
2023-01-06T01:07:59.771Z,99279.00
2023-01-06T01:10:30.631Z,99280.00
2023-01-06T01:13:01.517Z,99276.00
2023-01-06T01:15:32.543Z,99281.00
2023-01-06T01:18:03.538Z,99278.00
2023-01-06T01:20:34.537Z,99279.00
2023-01-06T01:23:05.513Z,99282.00
2023-01-06T01:25:36.399Z,99284.00
2023-01-06T01:28:07.831Z,99287.00
2023-01-06T01:30:38.709Z,99284.00
2023-01-06T01:33:09.630Z,99284.00
2023-01-06T01:35:40.526Z,99282.00
2023-01-06T01:38:11.476Z,99269.00
2023-01-06T01:40:51.095Z,99268.00
2023-01-06T01:43:22.069Z,99269.00
2023-01-06T01:45:55.663Z,99281.00
2023-01-06T01:48:34.432Z,99265.00
2023-01-06T01:51:09.707Z,99261.00
2023-01-06T01:53:51.183Z,99264.00
2023-01-06T01:56:29.997Z,99266.00
2023-01-06T01:59:12.220Z,99257.00
2023-01-06T02:01:43.388Z,99259.00
2023-01-06T02:04:16.236Z,99265.00
2023-01-06T02:06:50.498Z,99261.00
2023-01-06T02:09:36.968Z,99261.00
2023-01-06T02:12:08.519Z,99259.00
2023-01-06T02:14:39.391Z,99260.00
2023-01-06T02:17:37.863Z,99258.00
2023-01-06T02:20:33.690Z,99261.00
2023-01-06T02:23:36.444Z,99256.00
2023-01-06T02:26:44.761Z,99253.00
2023-01-06T02:29:46.789Z,99253.00
2023-01-06T02:32:41.201Z,99245.00
2023-01-06T02:35:22.389Z,99240.00
2023-01-06T02:38:27.439Z,99239.00
2023-01-06T02:41:22.131Z,99237.00
2023-01-06T02:44:11.209Z,99241.00
2023-01-06T02:47:19.913Z,99247.00
2023-01-06T02:49:56.400Z,99235.00
2023-01-06T02:52:56.480Z,99241.00
2023-01-06T02:55:44.703Z,99232.00
2023-01-06T02:58:42.417Z,99239.00
2023-01-06T03:01:26.679Z,99236.00
2023-01-06T03:04:02.116Z,99239.00
2023-01-06T03:06:36.280Z,99234.00
2023-01-06T03:09:07.287Z,99235.00
2023-01-06T03:11:40.034Z,99227.00
2023-01-06T03:14:21.049Z,99236.00
2023-01-06T03:16:52.440Z,99237.00
2023-01-06T03:19:24.357Z,99254.00
2023-01-06T03:21:56.692Z,99230.00
2023-01-06T03:24:27.950Z,99228.00
2023-01-06T03:26:59.534Z,99220.00
2023-01-06T03:29:30.557Z,99222.00
2023-01-06T03:32:37.517Z,99224.00
2023-01-06T03:35:45.340Z,99229.00
2023-01-06T03:38:43.761Z,99217.00
2023-01-06T03:41:21.045Z,99221.00
2023-01-06T03:44:52.002Z,99222.00
2023-01-06T03:47:52.426Z,99213.00
2023-01-06T03:50:42.871Z,99221.00
2023-01-06T03:53:24.064Z,99224.00
2023-01-06T03:56:14.902Z,99221.00
2023-01-06T03:58:50.850Z,99223.00
2023-01-06T04:01:24.959Z,99231.00
2023-01-06T04:03:56.670Z,99226.00
2023-01-06T04:06:27.555Z,99231.00
2023-01-06T04:08:58.634Z,99230.00
2023-01-06T04:11:48.127Z,99216.00
2023-01-06T04:14:19.036Z,99216.00
2023-01-06T04:16:49.922Z,99216.00
2023-01-06T04:19:20.830Z,99221.00
2023-01-06T04:21:51.727Z,99222.00
2023-01-06T04:24:22.593Z,99214.00
2023-01-06T04:26:53.482Z,99225.00
2023-01-06T04:29:24.439Z,99210.00
2023-01-06T04:31:55.434Z,99207.00
2023-01-06T04:34:26.344Z,99219.00
2023-01-06T04:36:57.531Z,99213.00
2023-01-06T04:39:28.415Z,99213.00
2023-01-06T04:41:59.321Z,99211.00
2023-01-06T04:44:30.337Z,99223.00
2023-01-06T04:47:01.353Z,99218.00
2023-01-06T04:49:32.265Z,99218.00
2023-01-06T04:52:03.417Z,99219.00
2023-01-06T04:54:34.986Z,99218.00
2023-01-06T04:57:05.927Z,99220.00
2023-01-06T04:59:36.801Z,99218.00
2023-01-06T05:02:07.708Z,99209.00
2023-01-06T05:04:47.331Z,99200.00
2023-01-06T05:07:18.759Z,99204.00
2023-01-06T05:09:49.689Z,99198.00
2023-01-06T05:12:20.997Z,99204.00
2023-01-06T05:14:51.940Z,99208.00
2023-01-06T05:17:22.861Z,99207.00
2023-01-06T05:19:54.356Z,99204.00
2023-01-06T05:22:25.281Z,99228.00
2023-01-06T05:24:56.149Z,99208.00
2023-01-06T05:27:27.383Z,99210.00
2023-01-06T05:29:58.319Z,99224.00
2023-01-06T05:32:29.220Z,99197.00
2023-01-06T05:35:00.072Z,99203.00
2023-01-06T05:37:31.102Z,99204.00
2023-01-06T05:40:01.986Z,99203.00
2023-01-06T05:42:32.883Z,99197.00
2023-01-06T05:45:04.295Z,99197.00
2023-01-06T05:47:35.187Z,99194.00
2023-01-06T05:50:06.767Z,99203.00
2023-01-06T05:52:37.654Z,99203.00
2023-01-06T05:55:09.230Z,99197.00
2023-01-06T05:57:40.167Z,99198.00
2023-01-06T06:00:12.165Z,99185.00
2023-01-06T06:02:43.133Z,99197.00
2023-01-06T06:05:14.112Z,99196.00
2023-01-06T06:07:45.106Z,99194.00
2023-01-06T06:10:16.049Z,99202.00
2023-01-06T06:12:46.940Z,99203.00
2023-01-06T06:15:18.365Z,99206.00
2023-01-06T06:17:49.277Z,99195.00
2023-01-06T06:20:20.213Z,99194.00
2023-01-06T06:22:51.096Z,99194.00
2023-01-06T06:25:22.139Z,99190.00
2023-01-06T06:27:58.847Z,99202.00
2023-01-06T06:30:29.716Z,99200.00
2023-01-06T06:33:00.615Z,99203.00
2023-01-06T06:35:31.460Z,99215.00
2023-01-06T06:38:02.355Z,99212.00
2023-01-06T06:40:33.224Z,99203.00
2023-01-06T06:43:04.118Z,99191.00
2023-01-06T06:45:35.045Z,99206.00
2023-01-06T06:48:06.503Z,99198.00
2023-01-06T06:50:37.377Z,99192.00
2023-01-06T06:53:08.360Z,99196.00
2023-01-06T06:55:39.273Z,99194.00
2023-01-06T06:58:10.644Z,99195.00
2023-01-06T07:00:41.504Z,99204.00
2023-01-06T07:03:12.459Z,99198.00
2023-01-06T07:05:45.462Z,99206.00
2023-01-06T07:08:17.026Z,99207.00
2023-01-06T07:10:47.893Z,99205.00
2023-01-06T07:13:18.783Z,99213.00
2023-01-06T07:15:49.681Z,99214.00
2023-01-06T07:18:20.772Z,99216.00
2023-01-06T07:20:53.742Z,99221.00
2023-01-06T07:23:25.266Z,99241.00
2023-01-06T07:25:58.995Z,99251.00
2023-01-06T07:28:31.922Z,99251.00
2023-01-06T07:31:03.299Z,99256.00
2023-01-06T07:33:34.187Z,99256.00
2023-01-06T07:36:05.516Z,99257.00
2023-01-06T07:38:36.474Z,99265.00
2023-01-06T07:41:07.407Z,99272.00
2023-01-06T07:43:38.414Z,99268.00
2023-01-06T07:46:09.653Z,99280.00
2023-01-06T07:48:40.563Z,99271.00
2023-01-06T07:51:11.498Z,99280.00
2023-01-06T07:53:42.589Z,99286.00
2023-01-06T07:56:13.532Z,99289.00
2023-01-06T07:58:44.420Z,99285.00
2023-01-06T08:01:15.512Z,99290.00
2023-01-06T08:03:46.568Z,99293.00
2023-01-06T08:06:17.439Z,99293.00
2023-01-06T08:08:48.304Z,99293.00
2023-01-06T08:11:19.253Z,99300.00
2023-01-06T08:13:50.131Z,99304.00
2023-01-06T08:16:21.140Z,99297.00
2023-01-06T08:18:52.063Z,99309.00
2023-01-06T08:21:23.142Z,99290.00
2023-01-06T08:23:54.010Z,99308.00
2023-01-06T08:26:25.662Z,99299.00
2023-01-06T08:28:56.807Z,99309.00
2023-01-06T08:31:27.777Z,99314.00
2023-01-06T08:33:58.700Z,99323.00
2023-01-06T08:36:30.120Z,99324.00
2023-01-06T08:39:00.975Z,99326.00
2023-01-06T08:41:31.942Z,99317.00
2023-01-06T08:44:02.919Z,99314.00
2023-01-06T08:46:35.060Z,99313.00
2023-01-06T08:49:05.999Z,99316.00
2023-01-06T08:51:37.091Z,99320.00
2023-01-06T08:54:07.963Z,99317.00
2023-01-06T08:56:40.118Z,99311.00
2023-01-06T08:59:16.567Z,99323.00
2023-01-06T09:01:47.581Z,99324.00
2023-01-06T09:04:18.580Z,99325.00
2023-01-06T09:06:49.688Z,99323.00
2023-01-06T09:09:20.657Z,99325.00
2023-01-06T09:11:51.701Z,99332.00
2023-01-06T09:14:22.569Z,99335.00
2023-01-06T09:16:53.532Z,99334.00
2023-01-06T09:19:24.488Z,99326.00
2023-01-06T09:21:55.408Z,99328.00
2023-01-06T09:24:26.287Z,99352.00
2023-01-06T09:26:57.187Z,99327.00
2023-01-06T09:29:28.067Z,99341.00
2023-01-06T09:31:59.170Z,99330.00
2023-01-06T09:34:30.110Z,99335.00
2023-01-06T09:37:01.090Z,99331.00
2023-01-06T09:39:31.988Z,99336.00
2023-01-06T09:42:27.431Z,99342.00
2023-01-06T09:45:19.558Z,99345.00
2023-01-06T09:47:57.880Z,99352.00
2023-01-06T09:50:38.431Z,99355.00
2023-01-06T09:53:22.561Z,99346.00
2023-01-06T09:56:00.627Z,99344.00
2023-01-06T09:58:38.636Z,99345.00
2023-01-06T10:01:17.121Z,99353.00
2023-01-06T10:03:48.432Z,99348.00
2023-01-06T10:06:45.820Z,99350.00
2023-01-06T10:09:41.042Z,99333.00
2023-01-06T10:12:53.398Z,99334.00
2023-01-06T10:15:41.362Z,99323.00
2023-01-06T10:18:38.906Z,99312.00
2023-01-06T10:21:25.159Z,99319.00
2023-01-06T10:24:34.000Z,99300.00
2023-01-06T10:27:41.200Z,99293.00
2023-01-06T10:30:43.610Z,99293.00
2023-01-06T10:33:32.424Z,99286.00
2023-01-06T10:36:04.306Z,99286.00
2023-01-06T10:38:41.242Z,99278.00
2023-01-06T10:41:25.746Z,99282.00
2023-01-06T10:43:57.835Z,99277.00
2023-01-06T10:46:35.188Z,99292.00
2023-01-06T10:49:15.179Z,99259.00
2023-01-06T10:52:06.725Z,99260.00
2023-01-06T10:54:39.688Z,99254.00
2023-01-06T10:57:29.746Z,99255.00
2023-01-06T11:00:15.082Z,99248.00
2023-01-06T11:02:53.323Z,99253.00
2023-01-06T11:05:27.439Z,99247.00
2023-01-06T11:08:07.890Z,99253.00
2023-01-06T11:10:52.444Z,99250.00
2023-01-06T11:13:35.181Z,99253.00
2023-01-06T11:16:19.693Z,99249.00
2023-01-06T11:18:54.440Z,99263.00
2023-01-06T11:21:47.222Z,99268.00
2023-01-06T11:24:23.330Z,99259.00
2023-01-06T11:27:15.189Z,99249.00
2023-01-06T11:29:46.228Z,99247.00
2023-01-06T11:32:28.116Z,99245.00
2023-01-06T11:35:03.253Z,99245.00
2023-01-06T11:37:41.051Z,99243.00
2023-01-06T11:40:32.198Z,99236.00
2023-01-06T11:43:18.379Z,99233.00
2023-01-06T11:45:57.070Z,99235.00
2023-01-06T11:48:43.112Z,99233.00
2023-01-06T11:51:14.049Z,99235.00
2023-01-06T11:53:57.373Z,99234.00
2023-01-06T11:56:28.359Z,99242.00
2023-01-06T11:59:09.008Z,99234.00
2023-01-06T12:01:51.241Z,99239.00
2023-01-06T12:04:31.764Z,99225.00
2023-01-06T12:07:29.377Z,99218.00
2023-01-06T12:10:16.116Z,99221.00
2023-01-06T12:12:47.059Z,99225.00
2023-01-06T12:15:19.715Z,99219.00
2023-01-06T12:17:59.401Z,99225.00
2023-01-06T12:20:37.709Z,99232.00
2023-01-06T12:23:36.354Z,99221.00
2023-01-06T12:26:17.336Z,99212.00
2023-01-06T12:28:49.943Z,99218.00
2023-01-06T12:31:30.999Z,99218.00
2023-01-06T12:34:32.094Z,99218.00
2023-01-06T12:37:23.103Z,99213.00
2023-01-06T12:40:29.759Z,99211.00
2023-01-06T12:43:24.156Z,99204.00
2023-01-06T12:46:22.756Z,99213.00
2023-01-06T12:49:01.305Z,99214.00
2023-01-06T12:51:42.928Z,99207.00
2023-01-06T12:54:29.397Z,99202.00
2023-01-06T12:57:36.871Z,99205.00
2023-01-06T13:00:47.795Z,99214.00
2023-01-06T13:04:13.984Z,99207.00
2023-01-06T13:07:07.516Z,99205.00
2023-01-06T13:09:55.397Z,99210.00
2023-01-06T13:13:08.027Z,99204.00
2023-01-06T13:15:42.032Z,99203.00
2023-01-06T13:18:32.754Z,99213.00
2023-01-06T13:21:09.349Z,99208.00
2023-01-06T13:24:20.503Z,99211.00
2023-01-06T13:27:23.350Z,99209.00
2023-01-06T13:30:18.671Z,99205.00
2023-01-06T13:33:20.299Z,99200.00
2023-01-06T13:36:23.789Z,99198.00
2023-01-06T13:39:23.332Z,99199.00
2023-01-06T13:42:00.074Z,99189.00
2023-01-06T13:44:33.697Z,99194.00
2023-01-06T13:47:19.095Z,99227.00
2023-01-06T13:49:50.901Z,99193.00
2023-01-06T13:52:29.514Z,99195.00
2023-01-06T13:55:03.489Z,99203.00
2023-01-06T13:57:39.018Z,99211.00
2023-01-06T14:00:25.110Z,99216.00
2023-01-06T14:02:56.072Z,99221.00
2023-01-06T14:05:29.753Z,99229.00
2023-01-06T14:08:03.706Z,99217.00
2023-01-06T14:10:42.699Z,99222.00
2023-01-06T14:13:22.710Z,99213.00
2023-01-06T14:15:59.172Z,99218.00
2023-01-06T14:18:44.833Z,99218.00
2023-01-06T14:21:27.937Z,99221.00
2023-01-06T14:24:17.612Z,99223.00
2023-01-06T14:27:02.691Z,99229.00
2023-01-06T14:29:43.031Z,99231.00
2023-01-06T14:32:19.445Z,99236.00
2023-01-06T14:35:03.967Z,99232.00
2023-01-06T14:38:04.684Z,99237.00
2023-01-06T14:40:50.162Z,99232.00
2023-01-06T14:44:01.558Z,99236.00
2023-01-06T14:46:43.323Z,99234.00
2023-01-06T14:50:02.791Z,99246.00
2023-01-06T14:52:48.261Z,99253.00
2023-01-06T14:55:22.711Z,99244.00
2023-01-06T14:57:56.365Z,99246.00
2023-01-06T15:00:30.183Z,99253.00
2023-01-06T15:03:05.416Z,99255.00
2023-01-06T15:05:39.104Z,99278.00
2023-01-06T15:08:09.958Z,99259.00
2023-01-06T15:10:46.067Z,99252.00
2023-01-06T15:13:32.928Z,99256.00
2023-01-06T15:16:20.192Z,99264.00
2023-01-06T15:18:55.649Z,99262.00
2023-01-06T15:21:27.058Z,99255.00
2023-01-06T15:23:58.039Z,99251.00
2023-01-06T15:26:31.006Z,99247.00
2023-01-06T15:29:07.591Z,99254.00
2023-01-06T15:31:40.254Z,99246.00
2023-01-06T15:34:21.360Z,99256.00
2023-01-06T15:36:54.932Z,99259.00
2023-01-06T15:39:32.180Z,99264.00
2023-01-06T15:42:07.999Z,99264.00
2023-01-06T15:44:40.538Z,99269.00
2023-01-06T15:47:11.379Z,99267.00
2023-01-06T15:49:56.972Z,99272.00
2023-01-06T15:52:50.496Z,99268.00
2023-01-06T15:55:27.260Z,99270.00
2023-01-06T15:58:21.286Z,99273.00
2023-01-06T16:01:07.136Z,99281.00
2023-01-06T16:03:39.462Z,99276.00
2023-01-06T16:06:14.045Z,99273.00
2023-01-06T16:08:45.886Z,99279.00
2023-01-06T16:11:16.821Z,99281.00
2023-01-06T16:13:58.646Z,99270.00
2023-01-06T16:16:42.182Z,99279.00
2023-01-06T16:19:22.878Z,99277.00
2023-01-06T16:21:54.896Z,99277.00
2023-01-06T16:24:27.720Z,99280.00
2023-01-06T16:27:06.023Z,99275.00
2023-01-06T16:29:38.761Z,99266.00
2023-01-06T16:32:35.763Z,99282.00
2023-01-06T16:35:23.969Z,99275.00
2023-01-06T16:37:55.376Z,99277.00
2023-01-06T16:40:29.045Z,99280.00
2023-01-06T16:43:03.878Z,99272.00
2023-01-06T16:45:42.783Z,99276.00
2023-01-06T16:48:16.376Z,99269.00
2023-01-06T16:50:54.655Z,99277.00
2023-01-06T16:53:27.891Z,99276.00
2023-01-06T16:56:00.025Z,99283.00
2023-01-06T16:58:34.826Z,99287.00
2023-01-06T17:01:51.190Z,99288.00
2023-01-06T17:04:22.268Z,99281.00
2023-01-06T17:06:53.207Z,99279.00
2023-01-06T17:09:24.135Z,99285.00
2023-01-06T17:11:55.388Z,99278.00
2023-01-06T17:14:27.821Z,99271.00
2023-01-06T17:17:02.223Z,99275.00
2023-01-06T17:19:34.471Z,99267.00
2023-01-06T17:22:31.068Z,99266.00
2023-01-06T17:25:13.778Z,99263.00
2023-01-06T17:27:46.007Z,99295.00
2023-01-06T17:30:21.975Z,99258.00
2023-01-06T17:32:52.841Z,99265.00
2023-01-06T17:35:29.447Z,99257.00
2023-01-06T17:38:12.295Z,99266.00
2023-01-06T17:40:43.227Z,99259.00
2023-01-06T17:43:33.436Z,99264.00
2023-01-06T17:46:30.465Z,99261.00
2023-01-06T17:49:10.571Z,99270.00
2023-01-06T17:51:42.123Z,99279.00
2023-01-06T17:54:45.210Z,99273.00
2023-01-06T17:57:19.259Z,99273.00
2023-01-06T17:59:55.005Z,99265.00
2023-01-06T18:02:42.293Z,99282.00
2023-01-06T18:05:25.452Z,99272.00
2023-01-06T18:08:05.239Z,99277.00
2023-01-06T18:10:44.858Z,99275.00
2023-01-06T18:13:19.815Z,99279.00
2023-01-06T18:15:54.346Z,99281.00
2023-01-06T18:18:33.532Z,99285.00
2023-01-06T18:21:16.479Z,99286.00
2023-01-06T18:23:51.577Z,99289.00
2023-01-06T18:26:28.583Z,99287.00
2023-01-06T18:29:15.009Z,99283.00
2023-01-06T18:31:54.633Z,99290.00
2023-01-06T18:34:36.247Z,99312.00
2023-01-06T18:37:07.316Z,99292.00
2023-01-06T18:39:48.511Z,99294.00
2023-01-06T18:42:30.895Z,99298.00
2023-01-06T18:45:07.782Z,99298.00
2023-01-06T18:47:41.778Z,99296.00
2023-01-06T18:50:33.960Z,99299.00
2023-01-06T18:53:28.659Z,99294.00
2023-01-06T18:56:03.248Z,99294.00
2023-01-06T18:58:52.830Z,99289.00
2023-01-06T19:01:36.882Z,99291.00
2023-01-06T19:04:22.474Z,99292.00
2023-01-06T19:06:58.852Z,99289.00
2023-01-06T19:09:46.209Z,99284.00
2023-01-06T19:12:39.169Z,99287.00
2023-01-06T19:15:24.616Z,99286.00
2023-01-06T19:17:55.597Z,99290.00
2023-01-06T19:20:29.225Z,99283.00
2023-01-06T19:23:00.295Z,99289.00
2023-01-06T19:25:33.956Z,99289.00
2023-01-06T19:28:33.762Z,99292.00
2023-01-06T19:31:07.798Z,99297.00
2023-01-06T19:33:52.561Z,99300.00
2023-01-06T19:36:31.402Z,99298.00
2023-01-06T19:39:21.955Z,99293.00
2023-01-06T19:41:56.338Z,99300.00
2023-01-06T19:44:33.271Z,99289.00
2023-01-06T19:47:26.486Z,99285.00
2023-01-06T19:50:00.923Z,99292.00
2023-01-06T19:52:38.334Z,99313.00
2023-01-06T19:55:26.007Z,99296.00
2023-01-06T19:58:07.773Z,99289.00
2023-01-06T20:00:52.575Z,99294.00
2023-01-06T20:03:36.487Z,99291.00
2023-01-06T20:06:07.693Z,99293.00
2023-01-06T20:08:38.724Z,99292.00
2023-01-06T20:11:11.377Z,99293.00
2023-01-06T20:13:42.350Z,99287.00
2023-01-06T20:16:13.295Z,99282.00
2023-01-06T20:18:44.201Z,99286.00
2023-01-06T20:21:15.081Z,99276.00
2023-01-06T20:23:46.143Z,99276.00
2023-01-06T20:26:17.169Z,99276.00
2023-01-06T20:28:48.366Z,99272.00
2023-01-06T20:31:19.450Z,99274.00
2023-01-06T20:33:50.447Z,99278.00
2023-01-06T20:36:21.457Z,99280.00
2023-01-06T20:38:52.730Z,99277.00
2023-01-06T20:41:23.773Z,99278.00
2023-01-06T20:43:54.657Z,99283.00
2023-01-06T20:46:25.553Z,99274.00
2023-01-06T20:48:56.489Z,99278.00
2023-01-06T20:51:27.440Z,99298.00
2023-01-06T20:53:58.323Z,99279.00
2023-01-06T20:56:29.294Z,99279.00
2023-01-06T20:59:00.161Z,99283.00
2023-01-06T21:01:31.147Z,99275.00
2023-01-06T21:04:02.135Z,99272.00
2023-01-06T21:06:33.082Z,99266.00
2023-01-06T21:09:04.018Z,99273.00
2023-01-06T21:11:34.901Z,99278.00
2023-01-06T21:14:05.854Z,99276.00
2023-01-06T21:16:36.840Z,99275.00
2023-01-06T21:19:07.832Z,99274.00
2023-01-06T21:21:38.756Z,99274.00
2023-01-06T21:24:09.742Z,99262.00
2023-01-06T21:26:40.737Z,99262.00
2023-01-06T21:29:11.641Z,99260.00
2023-01-06T21:31:43.889Z,99261.00
2023-01-06T21:34:14.790Z,99259.00
2023-01-06T21:36:45.808Z,99269.00
2023-01-06T21:39:16.834Z,99247.00
2023-01-06T21:42:06.520Z,99252.00
2023-01-06T21:44:37.445Z,99260.00
2023-01-06T21:47:10.130Z,99242.00
2023-01-06T21:49:46.952Z,99239.00
2023-01-06T21:52:18.303Z,99248.00
2023-01-06T21:54:49.472Z,99256.00
2023-01-06T21:57:20.377Z,99250.00
2023-01-06T21:59:51.291Z,99255.00
2023-01-06T22:02:22.230Z,99259.00
2023-01-06T22:04:53.184Z,99259.00
2023-01-06T22:07:24.367Z,99253.00
2023-01-06T22:09:57.196Z,99251.00
2023-01-06T22:12:28.587Z,99252.00
2023-01-06T22:14:59.817Z,99253.00
2023-01-06T22:17:31.050Z,99250.00
2023-01-06T22:20:02.521Z,99253.00
2023-01-06T22:22:35.583Z,99258.00
2023-01-06T22:25:07.533Z,99249.00
2023-01-06T22:27:38.485Z,99250.00
2023-01-06T22:30:10.206Z,99240.00
2023-01-06T22:32:46.615Z,99253.00
2023-01-06T22:35:18.504Z,99248.00
2023-01-06T22:37:49.397Z,99250.00
2023-01-06T22:40:20.729Z,99245.00
2023-01-06T22:42:51.776Z,99254.00
2023-01-06T22:45:23.202Z,99244.00
2023-01-06T22:47:54.130Z,99251.00
2023-01-06T22:50:25.196Z,99248.00
2023-01-06T22:52:56.644Z,99243.00
2023-01-06T22:55:27.636Z,99247.00
2023-01-06T22:57:58.503Z,99248.00
2023-01-06T23:00:29.439Z,99248.00
2023-01-06T23:03:00.407Z,99247.00
2023-01-06T23:05:31.329Z,99245.00
2023-01-06T23:08:02.169Z,99244.00
2023-01-06T23:10:33.133Z,99242.00
2023-01-06T23:13:04.117Z,99245.00
2023-01-06T23:15:35.035Z,99234.00
2023-01-06T23:18:06.368Z,99234.00
2023-01-06T23:20:37.280Z,99236.00
2023-01-06T23:23:08.229Z,99229.00
2023-01-06T23:25:39.568Z,99229.00
2023-01-06T23:28:10.455Z,99234.00
2023-01-06T23:30:41.369Z,99234.00
2023-01-06T23:33:12.239Z,99251.00
2023-01-06T23:35:43.147Z,99235.00
2023-01-06T23:38:14.004Z,99233.00
2023-01-06T23:40:44.922Z,99229.00
2023-01-06T23:43:15.874Z,99240.00
2023-01-06T23:45:46.772Z,99225.00
2023-01-06T23:48:17.723Z,99229.00
2023-01-06T23:50:52.128Z,99231.00
2023-01-06T23:53:23.157Z,99229.00
2023-01-06T23:56:05.010Z,99221.00
2023-01-06T23:58:38.005Z,99219.00
